sensor_id;sensor_type;location;lat;lon;timestamp;P1;durP1;ratioP1;P2;durP2;ratioP2
17380;SDS011;8808;52.478;13.378;2023-05-07T00:01:39;25.93;;;12.77;;
17380;SDS011;8808;52.478;13.378;2023-05-07T00:04:06;22.27;;;12.47;;
17380;SDS011;8808;52.478;13.378;2023-05-07T00:06:33;24.37;;;13.00;;
17380;SDS011;8808;52.478;13.378;2023-05-07T00:09:00;22.07;;;11.93;;
17380;SDS011;8808;52.478;13.378;2023-05-07T00:11:28;25.37;;;12.53;;
17380;SDS011;8808;52.478;13.378;2023-05-07T00:13:56;22.70;;;12.57;;
17380;SDS011;8808;52.478;13.378;2023-05-07T00:16:33;18.93;;;11.10;;
17380;SDS011;8808;52.478;13.378;2023-05-07T00:19:02;24.37;;;13.60;;
17380;SDS011;8808;52.478;13.378;2023-05-07T00:21:28;22.30;;;11.43;;
17380;SDS011;8808;52.478;13.378;2023-05-07T00:23:55;20.33;;;11.93;;
17380;SDS011;8808;52.478;13.378;2023-05-07T00:26:22;18.57;;;11.07;;
17380;SDS011;8808;52.478;13.378;2023-05-07T00:28:49;19.57;;;11.17;;
17380;SDS011;8808;52.478;13.378;2023-05-07T00:31:18;15.93;;;10.17;;
17380;SDS011;8808;52.478;13.378;2023-05-07T00:33:44;21.13;;;11.60;;
17380;SDS011;8808;52.478;13.378;2023-05-07T00:36:11;18.57;;;10.90;;
17380;SDS011;8808;52.478;13.378;2023-05-07T00:38:38;22.00;;;11.13;;
17380;SDS011;8808;52.478;13.378;2023-05-07T00:41:05;16.93;;;10.60;;
17380;SDS011;8808;52.478;13.378;2023-05-07T00:43:32;17.67;;;10.27;;
17380;SDS011;8808;52.478;13.378;2023-05-07T00:45:59;18.40;;;10.93;;
17380;SDS011;8808;52.478;13.378;2023-05-07T00:48:28;16.13;;;9.43;;
17380;SDS011;8808;52.478;13.378;2023-05-07T00:50:55;22.70;;;10.60;;
17380;SDS011;8808;52.478;13.378;2023-05-07T00:53:23;18.60;;;9.73;;
17380;SDS011;8808;52.478;13.378;2023-05-07T00:55:50;18.10;;;10.10;;
17380;SDS011;8808;52.478;13.378;2023-05-07T00:58:17;18.33;;;10.00;;
17380;SDS011;8808;52.478;13.378;2023-05-07T01:03:19;17.47;;;10.67;;
17380;SDS011;8808;52.478;13.378;2023-05-07T01:05:48;21.73;;;11.00;;
17380;SDS011;8808;52.478;13.378;2023-05-07T01:08:17;20.50;;;11.83;;
17380;SDS011;8808;52.478;13.378;2023-05-07T01:10:44;20.97;;;11.80;;
17380;SDS011;8808;52.478;13.378;2023-05-07T01:13:13;20.57;;;11.93;;
17380;SDS011;8808;52.478;13.378;2023-05-07T01:15:41;24.60;;;12.97;;
17380;SDS011;8808;52.478;13.378;2023-05-07T01:18:09;21.67;;;10.67;;
17380;SDS011;8808;52.478;13.378;2023-05-07T01:20:36;20.03;;;11.27;;
17380;SDS011;8808;52.478;13.378;2023-05-07T01:23:04;18.03;;;10.20;;
17380;SDS011;8808;52.478;13.378;2023-05-07T01:25:33;22.27;;;11.80;;
17380;SDS011;8808;52.478;13.378;2023-05-07T01:28:00;23.37;;;10.93;;
17380;SDS011;8808;52.478;13.378;2023-05-07T01:30:27;20.17;;;11.60;;
17380;SDS011;8808;52.478;13.378;2023-05-07T01:32:57;19.53;;;10.73;;
17380;SDS011;8808;52.478;13.378;2023-05-07T01:35:32;21.03;;;11.47;;
17380;SDS011;8808;52.478;13.378;2023-05-07T01:38:05;21.60;;;11.77;;
17380;SDS011;8808;52.478;13.378;2023-05-07T01:40:33;18.40;;;10.90;;
17380;SDS011;8808;52.478;13.378;2023-05-07T01:43:00;17.37;;;10.40;;
17380;SDS011;8808;52.478;13.378;2023-05-07T01:45:28;19.40;;;11.53;;
17380;SDS011;8808;52.478;13.378;2023-05-07T01:47:56;20.13;;;11.23;;
17380;SDS011;8808;52.478;13.378;2023-05-07T01:50:24;15.40;;;10.00;;
17380;SDS011;8808;52.478;13.378;2023-05-07T01:52:52;16.60;;;10.67;;
17380;SDS011;8808;52.478;13.378;2023-05-07T01:55:20;15.70;;;10.07;;
17380;SDS011;8808;52.478;13.378;2023-05-07T01:57:47;19.17;;;11.00;;
17380;SDS011;8808;52.478;13.378;2023-05-07T02:00:14;17.00;;;9.73;;
17380;SDS011;8808;52.478;13.378;2023-05-07T02:02:42;19.53;;;10.20;;
17380;SDS011;8808;52.478;13.378;2023-05-07T02:05:09;16.57;;;9.57;;
17380;SDS011;8808;52.478;13.378;2023-05-07T02:07:36;17.63;;;10.07;;
17380;SDS011;8808;52.478;13.378;2023-05-07T02:10:03;19.83;;;9.90;;
17380;SDS011;8808;52.478;13.378;2023-05-07T02:12:32;17.30;;;9.67;;
17380;SDS011;8808;52.478;13.378;2023-05-07T02:14:59;16.53;;;9.13;;
17380;SDS011;8808;52.478;13.378;2023-05-07T02:17:26;18.53;;;9.60;;
17380;SDS011;8808;52.478;13.378;2023-05-07T02:19:56;16.37;;;9.87;;
17380;SDS011;8808;52.478;13.378;2023-05-07T02:22:23;19.10;;;10.80;;
17380;SDS011;8808;52.478;13.378;2023-05-07T02:24:50;21.27;;;10.87;;
17380;SDS011;8808;52.478;13.378;2023-05-07T02:27:17;18.83;;;11.83;;
17380;SDS011;8808;52.478;13.378;2023-05-07T02:29:46;18.17;;;10.40;;
17380;SDS011;8808;52.478;13.378;2023-05-07T02:32:13;17.63;;;10.57;;
17380;SDS011;8808;52.478;13.378;2023-05-07T02:34:39;18.37;;;10.07;;
17380;SDS011;8808;52.478;13.378;2023-05-07T02:37:06;19.37;;;10.87;;
17380;SDS011;8808;52.478;13.378;2023-05-07T02:39:33;21.13;;;11.07;;
17380;SDS011;8808;52.478;13.378;2023-05-07T02:42:02;20.33;;;11.77;;
17380;SDS011;8808;52.478;13.378;2023-05-07T02:44:29;17.77;;;10.67;;
17380;SDS011;8808;52.478;13.378;2023-05-07T02:46:58;16.47;;;9.80;;
17380;SDS011;8808;52.478;13.378;2023-05-07T02:49:25;21.67;;;10.80;;
17380;SDS011;8808;52.478;13.378;2023-05-07T02:51:51;17.67;;;10.87;;
17380;SDS011;8808;52.478;13.378;2023-05-07T02:54:18;17.87;;;10.63;;
17380;SDS011;8808;52.478;13.378;2023-05-07T02:56:45;16.70;;;10.20;;
17380;SDS011;8808;52.478;13.378;2023-05-07T02:59:12;16.77;;;10.37;;
17380;SDS011;8808;52.478;13.378;2023-05-07T03:01:39;18.90;;;10.37;;
17380;SDS011;8808;52.478;13.378;2023-05-07T03:04:10;19.50;;;11.00;;
17380;SDS011;8808;52.478;13.378;2023-05-07T03:06:37;16.50;;;9.60;;
17380;SDS011;8808;52.478;13.378;2023-05-07T03:09:04;17.10;;;10.33;;
17380;SDS011;8808;52.478;13.378;2023-05-07T03:11:31;15.93;;;9.20;;
17380;SDS011;8808;52.478;13.378;2023-05-07T03:13:58;18.33;;;9.43;;
17380;SDS011;8808;52.478;13.378;2023-05-07T03:16:25;16.03;;;9.40;;
17380;SDS011;8808;52.478;13.378;2023-05-07T03:18:52;12.10;;;8.33;;
17380;SDS011;8808;52.478;13.378;2023-05-07T03:21:20;18.93;;;9.93;;
17380;SDS011;8808;52.478;13.378;2023-05-07T03:23:47;19.83;;;10.33;;
17380;SDS011;8808;52.478;13.378;2023-05-07T03:26:14;15.33;;;9.10;;
17380;SDS011;8808;52.478;13.378;2023-05-07T03:28:41;15.30;;;9.20;;
17380;SDS011;8808;52.478;13.378;2023-05-07T03:31:08;17.70;;;9.27;;
17380;SDS011;8808;52.478;13.378;2023-05-07T03:33:37;16.63;;;8.63;;
17380;SDS011;8808;52.478;13.378;2023-05-07T03:36:16;14.47;;;8.73;;
17380;SDS011;8808;52.478;13.378;2023-05-07T03:38:44;16.70;;;9.33;;
17380;SDS011;8808;52.478;13.378;2023-05-07T03:41:11;17.13;;;9.93;;
17380;SDS011;8808;52.478;13.378;2023-05-07T03:43:38;19.33;;;9.90;;
17380;SDS011;8808;52.478;13.378;2023-05-07T03:46:05;16.97;;;9.47;;
17380;SDS011;8808;52.478;13.378;2023-05-07T03:48:32;21.20;;;10.10;;
17380;SDS011;8808;52.478;13.378;2023-05-07T03:50:59;16.30;;;9.13;;
17380;SDS011;8808;52.478;13.378;2023-05-07T03:53:26;15.17;;;9.07;;
17380;SDS011;8808;52.478;13.378;2023-05-07T03:55:54;19.27;;;9.40;;
17380;SDS011;8808;52.478;13.378;2023-05-07T03:58:21;14.80;;;9.60;;
17380;SDS011;8808;52.478;13.378;2023-05-07T04:00:48;16.63;;;9.37;;
17380;SDS011;8808;52.478;13.378;2023-05-07T04:03:15;17.37;;;9.73;;
17380;SDS011;8808;52.478;13.378;2023-05-07T04:05:43;16.27;;;9.83;;
17380;SDS011;8808;52.478;13.378;2023-05-07T04:08:10;15.47;;;9.57;;
17380;SDS011;8808;52.478;13.378;2023-05-07T04:10:37;15.93;;;9.67;;
17380;SDS011;8808;52.478;13.378;2023-05-07T04:13:05;17.50;;;10.77;;
17380;SDS011;8808;52.478;13.378;2023-05-07T04:15:32;19.47;;;10.07;;
17380;SDS011;8808;52.478;13.378;2023-05-07T04:17:59;17.03;;;9.27;;
17380;SDS011;8808;52.478;13.378;2023-05-07T04:20:26;18.20;;;10.17;;
17380;SDS011;8808;52.478;13.378;2023-05-07T04:22:53;12.67;;;8.57;;
17380;SDS011;8808;52.478;13.378;2023-05-07T04:25:20;15.90;;;9.07;;
17380;SDS011;8808;52.478;13.378;2023-05-07T04:27:51;15.50;;;8.90;;
17380;SDS011;8808;52.478;13.378;2023-05-07T04:30:19;19.47;;;9.33;;
17380;SDS011;8808;52.478;13.378;2023-05-07T04:32:46;14.03;;;8.20;;
17380;SDS011;8808;52.478;13.378;2023-05-07T04:35:14;14.03;;;8.40;;
17380;SDS011;8808;52.478;13.378;2023-05-07T04:37:41;14.63;;;8.20;;
17380;SDS011;8808;52.478;13.378;2023-05-07T04:40:08;12.73;;;7.80;;
17380;SDS011;8808;52.478;13.378;2023-05-07T04:42:35;17.80;;;9.50;;
17380;SDS011;8808;52.478;13.378;2023-05-07T04:45:02;13.70;;;8.30;;
17380;SDS011;8808;52.478;13.378;2023-05-07T04:47:31;13.60;;;8.47;;
17380;SDS011;8808;52.478;13.378;2023-05-07T04:49:58;16.27;;;8.20;;
17380;SDS011;8808;52.478;13.378;2023-05-07T04:52:25;16.47;;;9.07;;
17380;SDS011;8808;52.478;13.378;2023-05-07T04:54:52;14.77;;;8.83;;
17380;SDS011;8808;52.478;13.378;2023-05-07T04:57:19;16.67;;;8.87;;
17380;SDS011;8808;52.478;13.378;2023-05-07T04:59:46;15.17;;;8.43;;
17380;SDS011;8808;52.478;13.378;2023-05-07T05:02:13;13.53;;;7.60;;
17380;SDS011;8808;52.478;13.378;2023-05-07T05:04:42;15.33;;;8.10;;
17380;SDS011;8808;52.478;13.378;2023-05-07T05:07:09;14.27;;;8.43;;
17380;SDS011;8808;52.478;13.378;2023-05-07T05:09:36;9.67;;;6.27;;
17380;SDS011;8808;52.478;13.378;2023-05-07T05:12:03;14.97;;;6.90;;
17380;SDS011;8808;52.478;13.378;2023-05-07T05:14:32;14.33;;;6.90;;
17380;SDS011;8808;52.478;13.378;2023-05-07T05:16:59;12.87;;;7.20;;
17380;SDS011;8808;52.478;13.378;2023-05-07T05:19:26;13.40;;;7.70;;
17380;SDS011;8808;52.478;13.378;2023-05-07T05:21:54;14.20;;;6.90;;
17380;SDS011;8808;52.478;13.378;2023-05-07T05:24:21;11.93;;;6.87;;
17380;SDS011;8808;52.478;13.378;2023-05-07T05:26:48;8.87;;;5.97;;
17380;SDS011;8808;52.478;13.378;2023-05-07T05:29:15;11.80;;;7.17;;
17380;SDS011;8808;52.478;13.378;2023-05-07T05:31:42;13.50;;;6.83;;
17380;SDS011;8808;52.478;13.378;2023-05-07T05:34:09;12.03;;;7.17;;
17380;SDS011;8808;52.478;13.378;2023-05-07T05:36:36;13.87;;;7.20;;
17380;SDS011;8808;52.478;13.378;2023-05-07T05:39:04;11.70;;;6.73;;
17380;SDS011;8808;52.478;13.378;2023-05-07T05:41:31;9.23;;;6.33;;
17380;SDS011;8808;52.478;13.378;2023-05-07T05:43:58;9.63;;;6.43;;
17380;SDS011;8808;52.478;13.378;2023-05-07T05:46:25;13.03;;;7.73;;
17380;SDS011;8808;52.478;13.378;2023-05-07T05:48:52;12.93;;;6.90;;
17380;SDS011;8808;52.478;13.378;2023-05-07T05:51:20;10.97;;;6.47;;
17380;SDS011;8808;52.478;13.378;2023-05-07T05:53:47;11.53;;;7.23;;
17380;SDS011;8808;52.478;13.378;2023-05-07T05:56:15;12.03;;;7.37;;
17380;SDS011;8808;52.478;13.378;2023-05-07T05:58:42;12.27;;;6.77;;
17380;SDS011;8808;52.478;13.378;2023-05-07T06:01:09;11.90;;;7.17;;
17380;SDS011;8808;52.478;13.378;2023-05-07T06:03:37;10.97;;;7.10;;
17380;SDS011;8808;52.478;13.378;2023-05-07T06:06:04;11.73;;;7.00;;
17380;SDS011;8808;52.478;13.378;2023-05-07T06:08:31;15.60;;;7.07;;
17380;SDS011;8808;52.478;13.378;2023-05-07T06:10:58;11.50;;;6.83;;
17380;SDS011;8808;52.478;13.378;2023-05-07T06:13:27;12.37;;;7.07;;
17380;SDS011;8808;52.478;13.378;2023-05-07T06:15:53;14.53;;;7.07;;
17380;SDS011;8808;52.478;13.378;2023-05-07T06:18:20;14.60;;;7.50;;
17380;SDS011;8808;52.478;13.378;2023-05-07T06:20:47;10.13;;;6.17;;
17380;SDS011;8808;52.478;13.378;2023-05-07T06:23:14;11.60;;;6.50;;
17380;SDS011;8808;52.478;13.378;2023-05-07T06:25:41;9.57;;;6.17;;
17380;SDS011;8808;52.478;13.378;2023-05-07T06:28:08;12.53;;;7.57;;
17380;SDS011;8808;52.478;13.378;2023-05-07T06:30:37;13.90;;;7.37;;
17380;SDS011;8808;52.478;13.378;2023-05-07T06:33:05;11.40;;;7.23;;
17380;SDS011;8808;52.478;13.378;2023-05-07T06:35:32;14.80;;;7.03;;
17380;SDS011;8808;52.478;13.378;2023-05-07T06:37:59;12.93;;;7.47;;
17380;SDS011;8808;52.478;13.378;2023-05-07T06:40:26;13.00;;;7.70;;
17380;SDS011;8808;52.478;13.378;2023-05-07T06:42:53;14.27;;;8.03;;
17380;SDS011;8808;52.478;13.378;2023-05-07T06:45:20;15.10;;;8.20;;
17380;SDS011;8808;52.478;13.378;2023-05-07T06:47:48;11.90;;;6.63;;
17380;SDS011;8808;52.478;13.378;2023-05-07T06:50:15;12.37;;;7.47;;
17380;SDS011;8808;52.478;13.378;2023-05-07T06:52:42;10.53;;;6.90;;
17380;SDS011;8808;52.478;13.378;2023-05-07T06:55:09;11.60;;;7.43;;
17380;SDS011;8808;52.478;13.378;2023-05-07T06:57:37;14.57;;;7.80;;
17380;SDS011;8808;52.478;13.378;2023-05-07T07:00:05;10.43;;;7.13;;
17380;SDS011;8808;52.478;13.378;2023-05-07T07:02:34;11.70;;;7.03;;
17380;SDS011;8808;52.478;13.378;2023-05-07T07:05:02;13.57;;;7.67;;
17380;SDS011;8808;52.478;13.378;2023-05-07T07:07:29;10.97;;;7.13;;
17380;SDS011;8808;52.478;13.378;2023-05-07T07:09:56;9.77;;;6.33;;
17380;SDS011;8808;52.478;13.378;2023-05-07T07:12:23;10.30;;;7.23;;
17380;SDS011;8808;52.478;13.378;2023-05-07T07:14:51;10.60;;;5.37;;
17380;SDS011;8808;52.478;13.378;2023-05-07T07:17:17;9.33;;;6.23;;
17380;SDS011;8808;52.478;13.378;2023-05-07T07:19:45;9.97;;;6.07;;
17380;SDS011;8808;52.478;13.378;2023-05-07T07:22:13;9.97;;;5.57;;
17380;SDS011;8808;52.478;13.378;2023-05-07T07:24:40;7.13;;;5.13;;
17380;SDS011;8808;52.478;13.378;2023-05-07T07:27:07;9.97;;;5.70;;
17380;SDS011;8808;52.478;13.378;2023-05-07T07:29:34;7.33;;;5.33;;
17380;SDS011;8808;52.478;13.378;2023-05-07T07:32:01;7.27;;;5.00;;
17380;SDS011;8808;52.478;13.378;2023-05-07T07:34:28;7.07;;;4.87;;
17380;SDS011;8808;52.478;13.378;2023-05-07T07:36:55;6.50;;;4.70;;
17380;SDS011;8808;52.478;13.378;2023-05-07T07:39:23;6.73;;;4.30;;
17380;SDS011;8808;52.478;13.378;2023-05-07T07:41:50;6.60;;;4.20;;
17380;SDS011;8808;52.478;13.378;2023-05-07T07:44:17;5.73;;;4.20;;
17380;SDS011;8808;52.478;13.378;2023-05-07T07:46:44;6.97;;;4.60;;
17380;SDS011;8808;52.478;13.378;2023-05-07T07:49:11;7.50;;;5.33;;
17380;SDS011;8808;52.478;13.378;2023-05-07T07:51:38;9.13;;;5.10;;
17380;SDS011;8808;52.478;13.378;2023-05-07T07:54:05;8.30;;;4.97;;
17380;SDS011;8808;52.478;13.378;2023-05-07T07:56:33;9.27;;;4.63;;
17380;SDS011;8808;52.478;13.378;2023-05-07T07:59:01;7.70;;;4.63;;
17380;SDS011;8808;52.478;13.378;2023-05-07T08:01:29;7.17;;;4.30;;
17380;SDS011;8808;52.478;13.378;2023-05-07T08:03:56;7.33;;;4.70;;
17380;SDS011;8808;52.478;13.378;2023-05-07T08:06:24;6.50;;;4.40;;
17380;SDS011;8808;52.478;13.378;2023-05-07T08:08:51;9.33;;;4.77;;
17380;SDS011;8808;52.478;13.378;2023-05-07T08:11:18;7.67;;;4.60;;
17380;SDS011;8808;52.478;13.378;2023-05-07T08:13:46;6.43;;;4.57;;
17380;SDS011;8808;52.478;13.378;2023-05-07T08:16:13;6.60;;;3.93;;
17380;SDS011;8808;52.478;13.378;2023-05-07T08:18:40;6.47;;;4.00;;
17380;SDS011;8808;52.478;13.378;2023-05-07T08:21:07;6.27;;;4.03;;
17380;SDS011;8808;52.478;13.378;2023-05-07T08:23:35;7.20;;;4.10;;
17380;SDS011;8808;52.478;13.378;2023-05-07T08:26:01;4.73;;;4.00;;
17380;SDS011;8808;52.478;13.378;2023-05-07T08:28:28;6.33;;;4.03;;
17380;SDS011;8808;52.478;13.378;2023-05-07T08:30:57;6.03;;;4.03;;
17380;SDS011;8808;52.478;13.378;2023-05-07T08:33:25;5.03;;;3.50;;
17380;SDS011;8808;52.478;13.378;2023-05-07T08:35:52;5.40;;;3.63;;
17380;SDS011;8808;52.478;13.378;2023-05-07T08:38:19;4.43;;;3.33;;
17380;SDS011;8808;52.478;13.378;2023-05-07T08:40:46;5.20;;;3.70;;
17380;SDS011;8808;52.478;13.378;2023-05-07T08:43:13;7.23;;;3.77;;
17380;SDS011;8808;52.478;13.378;2023-05-07T08:45:41;3.93;;;3.17;;
17380;SDS011;8808;52.478;13.378;2023-05-07T08:48:16;4.07;;;3.10;;
17380;SDS011;8808;52.478;13.378;2023-05-07T08:50:43;4.00;;;3.50;;
17380;SDS011;8808;52.478;13.378;2023-05-07T08:53:10;5.57;;;3.33;;
17380;SDS011;8808;52.478;13.378;2023-05-07T08:55:38;6.17;;;3.27;;
17380;SDS011;8808;52.478;13.378;2023-05-07T08:58:05;8.00;;;3.53;;
17380;SDS011;8808;52.478;13.378;2023-05-07T09:00:32;5.77;;;3.47;;
17380;SDS011;8808;52.478;13.378;2023-05-07T09:03:00;4.47;;;3.23;;
17380;SDS011;8808;52.478;13.378;2023-05-07T09:05:29;5.33;;;3.43;;
17380;SDS011;8808;52.478;13.378;2023-05-07T09:07:58;5.13;;;3.27;;
17380;SDS011;8808;52.478;13.378;2023-05-07T09:10:25;4.70;;;3.10;;
17380;SDS011;8808;52.478;13.378;2023-05-07T09:12:53;7.83;;;3.47;;
17380;SDS011;8808;52.478;13.378;2023-05-07T09:15:20;5.20;;;3.03;;
17380;SDS011;8808;52.478;13.378;2023-05-07T09:17:46;6.33;;;3.13;;
17380;SDS011;8808;52.478;13.378;2023-05-07T09:20:14;3.90;;;3.10;;
17380;SDS011;8808;52.478;13.378;2023-05-07T09:22:43;4.33;;;2.90;;
17380;SDS011;8808;52.478;13.378;2023-05-07T09:25:10;5.97;;;2.80;;
17380;SDS011;8808;52.478;13.378;2023-05-07T09:27:37;4.63;;;3.00;;
17380;SDS011;8808;52.478;13.378;2023-05-07T09:30:04;4.40;;;3.00;;
17380;SDS011;8808;52.478;13.378;2023-05-07T09:32:34;4.87;;;2.50;;
17380;SDS011;8808;52.478;13.378;2023-05-07T09:35:03;5.43;;;3.30;;
17380;SDS011;8808;52.478;13.378;2023-05-07T09:37:30;5.17;;;3.20;;
17380;SDS011;8808;52.478;13.378;2023-05-07T09:39:59;5.90;;;3.33;;
17380;SDS011;8808;52.478;13.378;2023-05-07T09:42:26;6.00;;;2.87;;
17380;SDS011;8808;52.478;13.378;2023-05-07T09:44:53;4.43;;;2.90;;
17380;SDS011;8808;52.478;13.378;2023-05-07T09:47:20;6.30;;;3.57;;
17380;SDS011;8808;52.478;13.378;2023-05-07T09:49:52;5.60;;;3.03;;
17380;SDS011;8808;52.478;13.378;2023-05-07T09:52:23;5.47;;;3.13;;
17380;SDS011;8808;52.478;13.378;2023-05-07T09:54:53;6.20;;;2.73;;
17380;SDS011;8808;52.478;13.378;2023-05-07T09:57:25;5.87;;;2.83;;
17380;SDS011;8808;52.478;13.378;2023-05-07T09:59:53;3.70;;;2.50;;
17380;SDS011;8808;52.478;13.378;2023-05-07T10:02:22;3.87;;;2.80;;
17380;SDS011;8808;52.478;13.378;2023-05-07T10:04:51;6.30;;;2.63;;
17380;SDS011;8808;52.478;13.378;2023-05-07T10:07:20;4.97;;;3.00;;
17380;SDS011;8808;52.478;13.378;2023-05-07T10:09:47;3.10;;;2.20;;
17380;SDS011;8808;52.478;13.378;2023-05-07T10:12:16;4.77;;;2.50;;
17380;SDS011;8808;52.478;13.378;2023-05-07T10:14:46;3.73;;;2.40;;
17380;SDS011;8808;52.478;13.378;2023-05-07T10:17:15;3.67;;;2.20;;
17380;SDS011;8808;52.478;13.378;2023-05-07T10:19:44;4.80;;;1.90;;
17380;SDS011;8808;52.478;13.378;2023-05-07T10:22:11;3.87;;;2.00;;
17380;SDS011;8808;52.478;13.378;2023-05-07T10:24:41;2.73;;;2.07;;
17380;SDS011;8808;52.478;13.378;2023-05-07T10:27:11;4.73;;;2.20;;
17380;SDS011;8808;52.478;13.378;2023-05-07T10:29:43;2.67;;;1.90;;
17380;SDS011;8808;52.478;13.378;2023-05-07T10:32:26;2.50;;;1.80;;
17380;SDS011;8808;52.478;13.378;2023-05-07T10:35:02;3.87;;;1.90;;
17380;SDS011;8808;52.478;13.378;2023-05-07T10:37:32;2.73;;;2.00;;
17380;SDS011;8808;52.478;13.378;2023-05-07T10:40:00;3.17;;;1.83;;
17380;SDS011;8808;52.478;13.378;2023-05-07T10:42:27;2.47;;;1.80;;
17380;SDS011;8808;52.478;13.378;2023-05-07T10:44:56;2.50;;;1.70;;
17380;SDS011;8808;52.478;13.378;2023-05-07T10:47:23;2.80;;;1.50;;
17380;SDS011;8808;52.478;13.378;2023-05-07T10:55:49;2.93;;;1.83;;
17380;SDS011;8808;52.478;13.378;2023-05-07T10:58:23;2.37;;;1.87;;
17380;SDS011;8808;52.478;13.378;2023-05-07T11:00:56;1.90;;;1.70;;
17380;SDS011;8808;52.478;13.378;2023-05-07T11:03:24;2.30;;;1.90;;
17380;SDS011;8808;52.478;13.378;2023-05-07T11:08:52;3.47;;;2.37;;
17380;SDS011;8808;52.478;13.378;2023-05-07T11:11:21;2.03;;;1.77;;
17380;SDS011;8808;52.478;13.378;2023-05-07T11:14:12;2.33;;;1.80;;
17380;SDS011;8808;52.478;13.378;2023-05-07T11:16:41;3.13;;;2.20;;
17380;SDS011;8808;52.478;13.378;2023-05-07T11:19:09;1.97;;;1.77;;
17380;SDS011;8808;52.478;13.378;2023-05-07T11:21:36;2.87;;;1.90;;
17380;SDS011;8808;52.478;13.378;2023-05-07T11:24:05;3.10;;;2.20;;
17380;SDS011;8808;52.478;13.378;2023-05-07T11:26:41;2.73;;;1.90;;
17380;SDS011;8808;52.478;13.378;2023-05-07T11:29:10;2.30;;;1.70;;
17380;SDS011;8808;52.478;13.378;2023-05-07T11:31:38;3.20;;;1.80;;
17380;SDS011;8808;52.478;13.378;2023-05-07T11:34:07;3.20;;;1.80;;
17380;SDS011;8808;52.478;13.378;2023-05-07T11:36:35;3.83;;;2.03;;
17380;SDS011;8808;52.478;13.378;2023-05-07T11:39:22;3.03;;;1.97;;
17380;SDS011;8808;52.478;13.378;2023-05-07T11:41:50;1.73;;;1.53;;
17380;SDS011;8808;52.478;13.378;2023-05-07T11:44:16;3.70;;;1.80;;
17380;SDS011;8808;52.478;13.378;2023-05-07T11:46:45;1.90;;;1.60;;
17380;SDS011;8808;52.478;13.378;2023-05-07T11:49:12;2.17;;;1.73;;
17380;SDS011;8808;52.478;13.378;2023-05-07T11:51:39;3.67;;;2.37;;
17380;SDS011;8808;52.478;13.378;2023-05-07T11:54:07;1.93;;;1.67;;
17380;SDS011;8808;52.478;13.378;2023-05-07T11:56:36;2.70;;;1.97;;
17380;SDS011;8808;52.478;13.378;2023-05-07T11:59:03;3.93;;;2.07;;
17380;SDS011;8808;52.478;13.378;2023-05-07T12:01:30;3.70;;;1.80;;
17380;SDS011;8808;52.478;13.378;2023-05-07T12:03:59;2.60;;;1.90;;
17380;SDS011;8808;52.478;13.378;2023-05-07T12:06:30;2.70;;;1.80;;
17380;SDS011;8808;52.478;13.378;2023-05-07T12:08:57;6.07;;;1.93;;
17380;SDS011;8808;52.478;13.378;2023-05-07T12:11:24;2.97;;;1.70;;
17380;SDS011;8808;52.478;13.378;2023-05-07T12:13:53;6.77;;;1.70;;
17380;SDS011;8808;52.478;13.378;2023-05-07T12:16:21;1.60;;;1.50;;
17380;SDS011;8808;52.478;13.378;2023-05-07T12:18:48;2.47;;;1.50;;
17380;SDS011;8808;52.478;13.378;2023-05-07T12:21:19;2.10;;;1.60;;
17380;SDS011;8808;52.478;13.378;2023-05-07T12:23:46;1.80;;;1.67;;
17380;SDS011;8808;52.478;13.378;2023-05-07T12:26:13;2.23;;;1.80;;
17380;SDS011;8808;52.478;13.378;2023-05-07T12:28:40;2.70;;;1.70;;
17380;SDS011;8808;52.478;13.378;2023-05-07T12:31:07;1.60;;;1.50;;
17380;SDS011;8808;52.478;13.378;2023-05-07T12:33:35;2.00;;;1.77;;
17380;SDS011;8808;52.478;13.378;2023-05-07T12:36:03;2.23;;;1.70;;
17380;SDS011;8808;52.478;13.378;2023-05-07T12:38:37;3.50;;;1.70;;
17380;SDS011;8808;52.478;13.378;2023-05-07T12:41:05;2.23;;;1.77;;
17380;SDS011;8808;52.478;13.378;2023-05-07T12:43:33;2.20;;;1.60;;
17380;SDS011;8808;52.478;13.378;2023-05-07T12:46:01;2.53;;;1.60;;
17380;SDS011;8808;52.478;13.378;2023-05-07T12:48:29;2.33;;;1.70;;
17380;SDS011;8808;52.478;13.378;2023-05-07T12:50:57;2.27;;;1.43;;
17380;SDS011;8808;52.478;13.378;2023-05-07T12:53:25;3.30;;;1.83;;
17380;SDS011;8808;52.478;13.378;2023-05-07T12:55:55;2.37;;;1.60;;
17380;SDS011;8808;52.478;13.378;2023-05-07T12:58:23;2.77;;;1.70;;
17380;SDS011;8808;52.478;13.378;2023-05-07T13:00:51;3.60;;;1.80;;
17380;SDS011;8808;52.478;13.378;2023-05-07T13:03:22;3.30;;;1.60;;
17380;SDS011;8808;52.478;13.378;2023-05-07T13:05:51;2.23;;;1.67;;
17380;SDS011;8808;52.478;13.378;2023-05-07T13:08:24;2.17;;;1.40;;
17380;SDS011;8808;52.478;13.378;2023-05-07T13:10:52;2.60;;;1.60;;
17380;SDS011;8808;52.478;13.378;2023-05-07T13:13:21;2.10;;;1.40;;
17380;SDS011;8808;52.478;13.378;2023-05-07T13:15:48;2.97;;;1.70;;
17380;SDS011;8808;52.478;13.378;2023-05-07T13:18:15;3.20;;;1.50;;
17380;SDS011;8808;52.478;13.378;2023-05-07T13:20:42;1.70;;;1.47;;
17380;SDS011;8808;52.478;13.378;2023-05-07T13:23:09;2.30;;;1.50;;
17380;SDS011;8808;52.478;13.378;2023-05-07T13:25:36;1.90;;;1.40;;
17380;SDS011;8808;52.478;13.378;2023-05-07T13:28:04;2.37;;;1.50;;
17380;SDS011;8808;52.478;13.378;2023-05-07T13:30:31;3.13;;;1.50;;
17380;SDS011;8808;52.478;13.378;2023-05-07T13:32:58;2.20;;;1.60;;
17380;SDS011;8808;52.478;13.378;2023-05-07T13:35:25;3.50;;;1.40;;
17380;SDS011;8808;52.478;13.378;2023-05-07T13:37:53;2.60;;;1.57;;
17380;SDS011;8808;52.478;13.378;2023-05-07T13:40:20;2.93;;;1.60;;
17380;SDS011;8808;52.478;13.378;2023-05-07T13:42:48;5.20;;;1.20;;
17380;SDS011;8808;52.478;13.378;2023-05-07T13:45:17;3.13;;;1.50;;
17380;SDS011;8808;52.478;13.378;2023-05-07T13:47:44;1.90;;;1.40;;
17380;SDS011;8808;52.478;13.378;2023-05-07T13:50:11;3.90;;;1.40;;
17380;SDS011;8808;52.478;13.378;2023-05-07T13:52:40;2.07;;;1.30;;
17380;SDS011;8808;52.478;13.378;2023-05-07T13:55:10;1.50;;;1.30;;
17380;SDS011;8808;52.478;13.378;2023-05-07T13:57:38;1.80;;;1.43;;
17380;SDS011;8808;52.478;13.378;2023-05-07T14:00:05;2.77;;;1.87;;
17380;SDS011;8808;52.478;13.378;2023-05-07T14:02:34;2.53;;;1.40;;
17380;SDS011;8808;52.478;13.378;2023-05-07T14:05:01;1.60;;;1.20;;
17380;SDS011;8808;52.478;13.378;2023-05-07T14:07:29;2.83;;;1.60;;
17380;SDS011;8808;52.478;13.378;2023-05-07T14:09:56;2.30;;;1.50;;
17380;SDS011;8808;52.478;13.378;2023-05-07T14:12:23;1.93;;;1.40;;
17380;SDS011;8808;52.478;13.378;2023-05-07T14:14:50;2.50;;;1.50;;
17380;SDS011;8808;52.478;13.378;2023-05-07T14:17:17;3.00;;;1.63;;
17380;SDS011;8808;52.478;13.378;2023-05-07T14:19:46;2.17;;;1.30;;
17380;SDS011;8808;52.478;13.378;2023-05-07T14:22:13;3.40;;;1.70;;
17380;SDS011;8808;52.478;13.378;2023-05-07T14:24:40;1.93;;;1.40;;
17380;SDS011;8808;52.478;13.378;2023-05-07T14:27:07;1.90;;;1.60;;
17380;SDS011;8808;52.478;13.378;2023-05-07T14:29:34;2.70;;;1.40;;
17380;SDS011;8808;52.478;13.378;2023-05-07T14:32:01;1.70;;;1.47;;
17380;SDS011;8808;52.478;13.378;2023-05-07T14:34:29;2.83;;;1.50;;
17380;SDS011;8808;52.478;13.378;2023-05-07T14:36:57;1.80;;;1.40;;
17380;SDS011;8808;52.478;13.378;2023-05-07T14:39:24;4.57;;;2.57;;
17380;SDS011;8808;52.478;13.378;2023-05-07T14:41:53;2.50;;;1.53;;
17380;SDS011;8808;52.478;13.378;2023-05-07T14:44:21;2.30;;;1.70;;
17380;SDS011;8808;52.478;13.378;2023-05-07T14:46:48;1.83;;;1.43;;
17380;SDS011;8808;52.478;13.378;2023-05-07T14:49:15;2.57;;;1.83;;
17380;SDS011;8808;52.478;13.378;2023-05-07T14:51:43;1.60;;;1.30;;
17380;SDS011;8808;52.478;13.378;2023-05-07T14:54:12;3.17;;;1.70;;